createdAt,value
2019-02-27T00:00:25.368Z,0
2019-02-27T00:01:25.365Z,0
2019-02-27T00:02:28.140Z,0
2019-02-27T00:03:28.624Z,0
2019-02-27T00:04:25.293Z,0
2019-02-27T00:05:25.285Z,0
2019-02-27T00:06:25.250Z,0
2019-02-27T00:07:28.054Z,0
2019-02-27T00:08:29.232Z,0
2019-02-27T00:09:25.188Z,0
2019-02-27T00:10:25.176Z,0
2019-02-27T00:11:25.140Z,0
2019-02-27T00:12:27.003Z,0
2019-02-27T00:13:29.529Z,0
2019-02-27T00:14:25.093Z,0
2019-02-27T00:15:25.072Z,0
2019-02-27T00:16:25.056Z,0
2019-02-27T00:17:25.878Z,0
2019-02-27T00:18:28.672Z,0
2019-02-27T00:19:24.999Z,0
2019-02-27T00:20:24.990Z,0
2019-02-27T00:21:24.924Z,0
2019-02-27T00:22:25.514Z,0
2019-02-27T00:23:28.720Z,0
2019-02-27T00:24:27.025Z,0
2019-02-27T00:25:24.852Z,0
2019-02-27T00:26:24.834Z,0
2019-02-27T00:27:24.814Z,0
2019-02-27T00:28:28.045Z,0
2019-02-27T00:29:28.784Z,0
2019-02-27T00:30:24.738Z,0
2019-02-27T00:31:24.737Z,0
2019-02-27T00:32:26.175Z,0
2019-02-27T00:33:31.098Z,0
2019-02-27T00:34:24.661Z,0
2019-02-27T00:35:24.644Z,0
2019-02-27T00:36:24.621Z,0
2019-02-27T00:37:26.515Z,0
2019-02-27T00:38:27.378Z,0
2019-02-27T00:39:24.564Z,0
2019-02-27T00:40:24.553Z,0
2019-02-27T00:41:24.520Z,0
2019-02-27T00:42:37.929Z,0
2019-02-27T00:43:25.942Z,0
2019-02-27T00:44:24.453Z,0
2019-02-27T00:45:24.425Z,0
2019-02-27T00:46:24.421Z,0
2019-02-27T00:47:27.669Z,0
2019-02-27T00:48:28.510Z,0
2019-02-27T00:49:24.440Z,0
2019-02-27T00:50:24.339Z,0
2019-02-27T00:51:24.318Z,0
2019-02-27T00:52:25.590Z,0
2019-02-27T00:53:29.013Z,0
2019-02-27T00:54:24.265Z,0
2019-02-27T00:55:24.231Z,0
2019-02-27T00:56:24.220Z,0
2019-02-27T00:57:27.780Z,0
2019-02-27T00:58:26.751Z,0
2019-02-27T00:59:24.145Z,0
2019-02-27T01:00:24.129Z,0
2019-02-27T01:01:24.115Z,0
2019-02-27T01:02:27.166Z,0
2019-02-27T01:03:28.451Z,0
2019-02-27T01:04:24.034Z,0
2019-02-27T01:05:24.034Z,0
2019-02-27T01:06:23.988Z,0
2019-02-27T01:07:27.521Z,0
2019-02-27T01:08:25.042Z,0
2019-02-27T01:09:23.944Z,0
2019-02-27T01:10:23.914Z,0
2019-02-27T01:11:25.977Z,0
2019-02-27T01:12:27.382Z,0
2019-02-27T01:13:23.851Z,0
2019-02-27T01:14:23.841Z,0
2019-02-27T01:15:23.805Z,0
2019-02-27T01:16:24.812Z,0
2019-02-27T01:17:28.281Z,0
2019-02-27T01:18:23.768Z,0
2019-02-27T01:19:23.727Z,0
2019-02-27T01:20:23.707Z,0
2019-02-27T01:21:26.335Z,0
2019-02-27T01:22:23.669Z,0
2019-02-27T01:23:23.642Z,0
2019-02-27T01:24:25.060Z,0
2019-02-27T01:25:27.753Z,0
2019-02-27T01:26:23.592Z,0
2019-02-27T01:27:23.318Z,0
2019-02-27T01:28:23.553Z,0
2019-02-27T01:29:25.774Z,0
2019-02-27T01:30:26.543Z,0
2019-02-27T01:31:26.118Z,0
2019-02-27T01:32:23.460Z,0
2019-02-27T01:33:23.464Z,0
2019-02-27T01:34:23.403Z,0
2019-02-27T01:35:25.914Z,0
2019-02-27T01:36:26.720Z,0
2019-02-27T01:37:23.379Z,0
2019-02-27T01:38:23.323Z,0
2019-02-27T01:39:23.302Z,0
2019-02-27T01:40:24.958Z,0
2019-02-27T01:41:26.925Z,0
2019-02-27T01:42:23.243Z,0
2019-02-27T01:43:23.219Z,0
2019-02-27T01:44:23.205Z,0
2019-02-27T01:45:27.754Z,0
2019-02-27T01:46:25.147Z,0
2019-02-27T01:47:23.134Z,0
2019-02-27T01:48:23.115Z,0
2019-02-27T01:49:23.862Z,0
2019-02-27T01:50:27.237Z,0
2019-02-27T01:51:23.057Z,0
2019-02-27T01:52:23.040Z,0
2019-02-27T01:53:22.998Z,0
2019-02-27T01:54:22.995Z,0
2019-02-27T01:55:26.694Z,0
2019-02-27T01:56:22.715Z,0
2019-02-27T01:57:22.915Z,0
2019-02-27T01:58:22.910Z,0
2019-02-27T01:59:24.626Z,0
2019-02-27T02:00:25.546Z,0
2019-02-27T02:01:22.840Z,0
2019-02-27T02:02:22.818Z,0
2019-02-27T02:03:22.803Z,0
2019-02-27T02:04:27.257Z,0
2019-02-27T02:05:26.042Z,0
2019-02-27T02:06:22.732Z,0
2019-02-27T02:07:22.719Z,0
2019-02-27T02:08:22.453Z,0
2019-02-27T02:09:25.871Z,0
2019-02-27T02:10:22.653Z,0
2019-02-27T02:11:22.634Z,0
2019-02-27T02:12:22.670Z,0
2019-02-27T02:13:22.949Z,0
2019-02-27T02:14:25.825Z,0
2019-02-27T02:15:22.564Z,0
2019-02-27T02:16:22.523Z,0
2019-02-27T02:17:22.511Z,0
2019-02-27T02:18:22.494Z,0
2019-02-27T02:19:25.995Z,0
2019-02-27T02:20:22.464Z,0
2019-02-27T02:21:22.414Z,0
2019-02-27T02:22:22.408Z,0
2019-02-27T02:23:22.378Z,0
2019-02-27T02:24:25.803Z,0
2019-02-27T02:25:22.323Z,0
2019-02-27T02:26:22.328Z,0
2019-02-27T02:27:22.303Z,0
2019-02-27T02:28:22.579Z,0
2019-02-27T02:29:24.936Z,0
2019-02-27T02:30:29.131Z,0
2019-02-27T02:31:22.224Z,0
2019-02-27T02:32:24.879Z,0
2019-02-27T02:33:28.627Z,0
2019-02-27T02:34:22.144Z,0
2019-02-27T02:35:23.098Z,0
2019-02-27T02:36:27.575Z,0
2019-02-27T02:37:22.109Z,0
2019-02-27T02:38:22.099Z,0
2019-02-27T02:39:25.469Z,0
2019-02-27T02:40:22.059Z,0
2019-02-27T02:41:22.014Z,0
2019-02-27T02:42:26.840Z,0
2019-02-27T02:43:21.967Z,0
2019-02-27T02:44:28.020Z,0
2019-02-27T02:45:21.925Z,0
2019-02-27T02:46:21.902Z,0
2019-02-27T02:47:27.185Z,0
2019-02-27T02:48:21.880Z,0
2019-02-27T02:49:21.849Z,0
2019-02-27T02:50:25.430Z,0
2019-02-27T02:51:21.816Z,0
2019-02-27T02:52:21.774Z,0
2019-02-27T02:53:27.432Z,0
2019-02-27T02:54:21.738Z,0
2019-02-27T02:55:21.764Z,0
2019-02-27T02:56:26.412Z,0
2019-02-27T02:57:21.683Z,0
2019-02-27T02:58:21.636Z,0
2019-02-27T02:59:27.101Z,0
2019-02-27T03:00:21.607Z,0
2019-02-27T03:01:22.621Z,0
2019-02-27T03:02:26.004Z,0
2019-02-27T03:03:21.539Z,0
2019-02-27T03:04:21.522Z,0
2019-02-27T03:05:25.844Z,0
2019-02-27T03:06:21.499Z,0
2019-02-27T03:07:21.487Z,0
2019-02-27T03:08:27.122Z,0
2019-02-27T03:09:21.418Z,0
2019-02-27T03:10:21.422Z,0
2019-02-27T03:11:25.295Z,0
2019-02-27T03:12:21.377Z,0
2019-02-27T03:13:21.316Z,0
2019-02-27T03:14:25.487Z,0
2019-02-27T03:15:21.308Z,0
2019-02-27T03:16:21.284Z,0
2019-02-27T03:17:25.261Z,0
2019-02-27T03:18:21.226Z,0
2019-02-27T03:19:21.222Z,0
2019-02-27T03:20:24.822Z,0
2019-02-27T03:21:24.565Z,0
2019-02-27T03:22:21.152Z,0
2019-02-27T03:23:23.345Z,0
2019-02-27T03:24:21.120Z,0
2019-02-27T03:25:21.095Z,0
2019-02-27T03:26:24.654Z,0
2019-02-27T03:27:21.038Z,0
2019-02-27T03:28:21.017Z,0
2019-02-27T03:29:24.212Z,0
2019-02-27T03:30:20.992Z,0
2019-02-27T03:31:25.763Z,0
2019-02-27T03:32:20.941Z,0
2019-02-27T03:33:32.125Z,0
2019-02-27T03:34:20.908Z,0
2019-02-27T03:35:30.530Z,0
2019-02-27T03:36:20.839Z,0
2019-02-27T03:37:21.399Z,0
2019-02-27T03:38:26.303Z,0
2019-02-27T03:39:20.799Z,0
2019-02-27T03:40:20.781Z,0
2019-02-27T03:41:25.147Z,0
2019-02-27T03:42:20.742Z,0
2019-02-27T03:43:20.698Z,0
2019-02-27T03:44:25.217Z,0
2019-02-27T03:45:20.660Z,0
2019-02-27T03:46:20.662Z,0
2019-02-27T03:47:23.977Z,0
2019-02-27T03:48:20.603Z,0
2019-02-27T03:49:20.571Z,0
2019-02-27T03:50:22.670Z,0
2019-02-27T03:51:24.300Z,0
2019-02-27T03:52:20.628Z,0
2019-02-27T03:53:20.491Z,0
2019-02-27T03:54:25.723Z,0
2019-02-27T03:55:20.450Z,0
2019-02-27T03:56:20.196Z,0
2019-02-27T03:57:26.269Z,0
2019-02-27T03:58:20.443Z,0
2019-02-27T03:59:20.364Z,0
2019-02-27T04:00:25.227Z,0
2019-02-27T04:01:20.343Z,0
2019-02-27T04:02:20.290Z,0
2019-02-27T04:03:24.289Z,0
2019-02-27T04:04:20.255Z,0
2019-02-27T04:05:20.250Z,0
2019-02-27T04:06:24.951Z,0
2019-02-27T04:07:19.953Z,0
2019-02-27T04:08:20.179Z,0
2019-02-27T04:09:26.125Z,0
2019-02-27T04:10:20.138Z,0
2019-02-27T04:11:20.119Z,0
2019-02-27T04:12:23.377Z,0
2019-02-27T04:13:20.060Z,0
2019-02-27T04:14:20.054Z,0
2019-02-27T04:15:24.957Z,0
2019-02-27T04:16:19.998Z,0
2019-02-27T04:17:19.968Z,0
2019-02-27T04:18:19.965Z,0
2019-02-27T04:19:19.938Z,0
2019-02-27T04:20:22.628Z,0
2019-02-27T04:21:24.910Z,0
2019-02-27T04:22:19.926Z,0
2019-02-27T04:23:20.009Z,0
2019-02-27T04:24:24.701Z,0
2019-02-27T04:25:19.807Z,0
2019-02-27T04:26:21.841Z,0
2019-02-27T04:27:25.095Z,0
2019-02-27T04:28:19.754Z,0
2019-02-27T04:29:19.716Z,0
2019-02-27T04:30:22.657Z,0
2019-02-27T04:31:20.423Z,0
2019-02-27T04:32:20.380Z,0
2019-02-27T04:33:25.475Z,0
2019-02-27T04:34:19.631Z,0
2019-02-27T04:35:19.628Z,0
2019-02-27T04:36:20.487Z,0
2019-02-27T04:37:22.541Z,0
2019-02-27T04:38:19.536Z,0
2019-02-27T04:39:19.507Z,0
2019-02-27T04:40:19.490Z,0
2019-02-27T04:41:22.869Z,0
2019-02-27T04:42:19.199Z,0
2019-02-27T04:43:19.424Z,0
2019-02-27T04:44:19.407Z,0
2019-02-27T04:45:20.230Z,0
2019-02-27T04:46:23.686Z,0
2019-02-27T04:47:19.337Z,0
2019-02-27T04:48:19.311Z,0
2019-02-27T04:49:19.302Z,0
2019-02-27T04:50:19.265Z,0
2019-02-27T04:51:23.988Z,0
2019-02-27T04:52:19.229Z,0
2019-02-27T04:53:19.224Z,0
2019-02-27T04:54:19.189Z,0
2019-02-27T04:55:22.540Z,0
2019-02-27T04:56:23.082Z,0
2019-02-27T04:57:19.122Z,0
2019-02-27T04:58:19.112Z,0
2019-02-27T04:59:23.171Z,0
2019-02-27T05:00:19.060Z,0
2019-02-27T05:01:19.028Z,0
2019-02-27T05:02:21.571Z,0
2019-02-27T05:03:18.993Z,0
2019-02-27T05:04:19.011Z,0
2019-02-27T05:05:18.953Z,0
2019-02-27T05:06:21.289Z,0
2019-02-27T05:07:22.589Z,0
2019-02-27T05:08:18.976Z,0
2019-02-27T05:09:19.906Z,0
2019-02-27T05:10:18.846Z,0
2019-02-27T05:11:21.267Z,0
2019-02-27T05:12:18.890Z,0
2019-02-27T05:13:23.170Z,0
2019-02-27T05:14:18.759Z,0
2019-02-27T05:15:18.506Z,0
2019-02-27T05:16:21.236Z,0
2019-02-27T05:17:21.140Z,0
2019-02-27T05:18:18.669Z,0
2019-02-27T05:19:20.013Z,0
2019-02-27T05:20:19.668Z,0
2019-02-27T05:21:21.423Z,0
2019-02-27T05:22:18.703Z,0
2019-02-27T05:23:18.573Z,0
2019-02-27T05:24:18.549Z,0
2019-02-27T05:25:19.891Z,0
2019-02-27T05:26:18.529Z,0
2019-02-27T05:27:18.489Z,0
2019-02-27T05:28:18.464Z,0
2019-02-27T05:29:20.550Z,0
2019-02-27T05:30:19.824Z,0
2019-02-27T05:31:23.114Z,0
2019-02-27T05:32:20.500Z,0
2019-02-27T05:33:18.361Z,0
2019-02-27T05:34:20.705Z,0
2019-02-27T05:35:21.064Z,0
2019-02-27T05:36:18.302Z,0
2019-02-27T05:37:18.273Z,0
2019-02-27T05:38:18.260Z,0
2019-02-27T05:39:21.737Z,0
2019-02-27T05:40:18.501Z,0
2019-02-27T05:41:18.219Z,0
2019-02-27T05:42:20.232Z,0
2019-02-27T05:43:20.978Z,0
2019-02-27T05:44:21.176Z,0
2019-02-27T05:45:18.122Z,0
2019-02-27T05:46:19.870Z,0
2019-02-27T05:47:18.970Z,0
2019-02-27T05:48:22.236Z,0
2019-02-27T05:49:18.034Z,0
2019-02-27T05:50:18.010Z,0
2019-02-27T05:51:18.019Z,0
2019-02-27T05:52:21.142Z,0
2019-02-27T05:53:22.073Z,0
2019-02-27T05:54:17.912Z,0
2019-02-27T05:55:17.868Z,0
2019-02-27T05:56:22.694Z,0
2019-02-27T05:57:17.869Z,0
2019-02-27T05:58:17.823Z,0
2019-02-27T05:59:17.801Z,0
2019-02-27T06:00:17.644Z,0
2019-02-27T06:01:17.763Z,0
2019-02-27T06:02:18.580Z,0
2019-02-27T06:03:20.451Z,0
2019-02-27T06:04:18.211Z,0
2019-02-27T06:05:17.707Z,0
2019-02-27T06:06:19.378Z,0
2019-02-27T06:07:21.321Z,0
2019-02-27T06:08:17.606Z,4
2019-02-27T06:09:18.072Z,4
2019-02-27T06:10:23.551Z,0
2019-02-27T06:11:17.639Z,4
2019-02-27T06:12:17.342Z,4
2019-02-27T06:13:21.053Z,4
2019-02-27T06:14:21.110Z,4
2019-02-27T06:15:17.458Z,4
2019-02-27T06:16:17.446Z,4
2019-02-27T06:17:20.078Z,4
2019-02-27T06:18:22.301Z,4
2019-02-27T06:19:17.398Z,8
2019-02-27T06:20:17.357Z,8
2019-02-27T06:21:20.520Z,8
2019-02-27T06:22:17.374Z,12
2019-02-27T06:23:17.313Z,12
2019-02-27T06:24:19.827Z,12
2019-02-27T06:25:24.361Z,12
2019-02-27T06:26:17.364Z,12
2019-02-27T06:27:17.375Z,16
2019-02-27T06:28:20.994Z,16
2019-02-27T06:29:17.155Z,16
2019-02-27T06:30:17.133Z,20
2019-02-27T06:31:17.119Z,20
2019-02-27T06:32:19.498Z,20
2019-02-27T06:33:19.731Z,20
2019-02-27T06:34:17.063Z,24
2019-02-27T06:35:18.367Z,28
2019-02-27T06:36:17.379Z,24
2019-02-27T06:37:20.157Z,28
2019-02-27T06:38:17.365Z,28
2019-02-27T06:39:17.268Z,32
2019-02-27T06:40:18.148Z,32
2019-02-27T06:41:20.955Z,32
2019-02-27T06:42:17.468Z,36
2019-02-27T06:43:16.867Z,36
2019-02-27T06:44:18.990Z,36
2019-02-27T06:45:19.666Z,40
2019-02-27T06:46:22.227Z,40
2019-02-27T06:47:17.248Z,40
2019-02-27T06:48:17.420Z,44
2019-02-27T06:49:19.973Z,40
2019-02-27T06:50:16.993Z,44
2019-02-27T06:51:17.203Z,48
2019-02-27T06:52:17.155Z,48
2019-02-27T06:53:20.185Z,48
2019-02-27T06:54:20.626Z,48
2019-02-27T06:55:18.767Z,52
2019-02-27T06:56:16.898Z,56
2019-02-27T06:57:17.607Z,52
2019-02-27T06:58:19.308Z,56
2019-02-27T06:59:18.042Z,56
2019-02-27T07:00:16.878Z,60
2019-02-27T07:01:20.512Z,56
2019-02-27T07:02:19.063Z,60
2019-02-27T07:03:16.437Z,60
2019-02-27T07:04:16.419Z,64
2019-02-27T07:05:20.589Z,64
2019-02-27T07:06:21.234Z,64
2019-02-27T07:07:16.184Z,68
2019-02-27T07:08:16.432Z,64
2019-02-27T07:09:19.236Z,68
2019-02-27T07:10:19.381Z,68
2019-02-27T07:11:18.083Z,72
2019-02-27T07:12:16.511Z,68
2019-02-27T07:13:16.297Z,72
2019-02-27T07:14:16.686Z,72
2019-02-27T07:15:19.877Z,72
2019-02-27T07:16:16.221Z,72
2019-02-27T07:17:16.198Z,76
2019-02-27T07:18:16.899Z,76
2019-02-27T07:19:20.251Z,76
2019-02-27T07:20:16.092Z,76
2019-02-27T07:21:16.081Z,80
2019-02-27T07:22:19.652Z,80
2019-02-27T07:23:16.006Z,80
2019-02-27T07:24:16.031Z,80
2019-02-27T07:25:15.957Z,84
2019-02-27T07:26:20.281Z,84
2019-02-27T07:27:15.917Z,84
2019-02-27T07:28:16.372Z,84
2019-02-27T07:29:27.241Z,88
2019-02-27T07:30:15.869Z,88
2019-02-27T07:31:19.986Z,88
2019-02-27T07:32:15.820Z,92
2019-02-27T07:33:15.780Z,88
2019-02-27T07:34:19.065Z,92
2019-02-27T07:35:15.788Z,96
2019-02-27T07:36:15.730Z,96
2019-02-27T07:37:19.775Z,96
2019-02-27T07:38:15.671Z,96
2019-02-27T07:39:15.662Z,100
2019-02-27T07:40:16.429Z,100
2019-02-27T07:41:21.038Z,100
2019-02-27T07:42:15.632Z,100
2019-02-27T07:43:15.628Z,100
2019-02-27T07:44:15.657Z,104
2019-02-27T07:45:18.393Z,100
2019-02-27T07:46:16.363Z,104
2019-02-27T07:47:15.524Z,104
2019-02-27T07:48:15.546Z,104
2019-02-27T07:49:15.261Z,104
2019-02-27T07:50:15.944Z,104
2019-02-27T07:51:15.399Z,108
2019-02-27T07:52:15.396Z,108
2019-02-27T07:53:19.900Z,108
2019-02-27T07:54:15.381Z,108
2019-02-27T07:55:32.353Z,108
2019-02-27T07:56:15.297Z,112
2019-02-27T07:57:15.269Z,108
2019-02-27T07:58:15.265Z,108
2019-02-27T07:59:15.233Z,112
2019-02-27T08:00:19.810Z,112
2019-02-27T08:01:15.196Z,112
2019-02-27T08:02:15.718Z,112
2019-02-27T08:03:18.079Z,112
2019-02-27T08:04:18.992Z,112
2019-02-27T08:05:15.108Z,112
2019-02-27T08:06:15.086Z,116
2019-02-27T08:07:19.302Z,116
2019-02-27T08:08:15.080Z,112
2019-02-27T08:09:15.030Z,116
2019-02-27T08:10:15.145Z,116
2019-02-27T08:11:18.341Z,116
2019-02-27T08:12:17.482Z,120
2019-02-27T08:13:14.957Z,116
2019-02-27T08:14:15.462Z,120
2019-02-27T08:15:16.058Z,124
2019-02-27T08:16:15.056Z,120
2019-02-27T08:17:26.383Z,124
2019-02-27T08:18:15.230Z,124
2019-02-27T08:19:17.054Z,124
2019-02-27T08:20:14.855Z,124
2019-02-27T08:21:14.817Z,124
2019-02-27T08:22:14.774Z,128
2019-02-27T08:23:15.629Z,124
2019-02-27T08:24:15.025Z,128
2019-02-27T08:25:15.159Z,124
2019-02-27T08:26:15.295Z,128
2019-02-27T08:27:17.544Z,128
2019-02-27T08:28:14.899Z,132
2019-02-27T08:29:14.729Z,132
2019-02-27T08:30:14.585Z,132
2019-02-27T08:31:14.549Z,144
2019-02-27T08:32:14.555Z,176
2019-02-27T08:33:17.631Z,240
2019-02-27T08:34:14.495Z,288
2019-02-27T08:35:16.486Z,308
2019-02-27T08:36:14.333Z,308
2019-02-27T08:37:14.404Z,300
2019-02-27T08:38:14.509Z,296
2019-02-27T08:39:14.414Z,300
2019-02-27T08:40:14.358Z,308
2019-02-27T08:41:14.429Z,324
2019-02-27T08:42:15.753Z,320
2019-02-27T08:43:17.961Z,296
2019-02-27T08:44:17.104Z,272
2019-02-27T08:45:29.317Z,252
2019-02-27T08:46:14.311Z,248
2019-02-27T08:47:17.155Z,248
2019-02-27T08:48:16.836Z,260
2019-02-27T08:49:14.181Z,272
2019-02-27T08:50:16.243Z,296
2019-02-27T08:51:16.172Z,312
2019-02-27T08:52:20.250Z,284
2019-02-27T08:53:14.164Z,300
2019-02-27T08:54:13.899Z,320
2019-02-27T08:55:25.304Z,364
2019-02-27T08:56:16.660Z,380
2019-02-27T08:57:13.984Z,408
2019-02-27T08:58:14.432Z,436
2019-02-27T08:59:13.958Z,404
2019-02-27T09:00:16.687Z,360
2019-02-27T09:01:13.895Z,372
2019-02-27T09:02:13.885Z,364
2019-02-27T09:03:22.952Z,352
2019-02-27T09:04:18.680Z,328
2019-02-27T09:05:13.814Z,312
2019-02-27T09:06:15.851Z,312
2019-02-27T09:07:13.799Z,312
2019-02-27T09:08:14.904Z,304
2019-02-27T09:09:19.710Z,284
2019-02-27T09:10:13.718Z,272
2019-02-27T09:11:14.761Z,268
2019-02-27T09:12:18.039Z,276
2019-02-27T09:13:13.647Z,296
2019-02-27T09:14:14.457Z,292
2019-02-27T09:15:13.657Z,292
2019-02-27T09:16:13.684Z,300
2019-02-27T09:17:13.570Z,320
2019-02-27T09:18:13.300Z,324
2019-02-27T09:19:18.004Z,296
2019-02-27T09:20:16.992Z,288
2019-02-27T09:21:13.569Z,280
2019-02-27T09:22:14.733Z,268
2019-02-27T09:23:13.249Z,264
2019-02-27T09:24:13.337Z,256
2019-02-27T09:25:13.528Z,248
2019-02-27T09:26:13.436Z,248
2019-02-27T09:27:13.337Z,244
2019-02-27T09:28:16.161Z,244
2019-02-27T09:29:13.300Z,208
2019-02-27T09:30:13.278Z,196
2019-02-27T09:31:14.570Z,204
2019-02-27T09:32:16.254Z,208
2019-02-27T09:33:13.643Z,192
2019-02-27T09:34:13.467Z,184
2019-02-27T09:35:13.185Z,176
2019-02-27T09:36:17.150Z,180
2019-02-27T09:37:13.843Z,176
2019-02-27T09:38:13.492Z,176
2019-02-27T09:39:13.163Z,176
2019-02-27T09:40:13.147Z,180
2019-02-27T09:41:17.063Z,176
2019-02-27T09:42:13.098Z,180
2019-02-27T09:43:14.282Z,188
2019-02-27T09:44:12.619Z,184
2019-02-27T09:45:17.977Z,192
2019-02-27T09:46:13.429Z,196
2019-02-27T09:47:13.264Z,204
2019-02-27T09:48:12.948Z,208
2019-02-27T09:49:14.194Z,204
2019-02-27T09:50:16.198Z,200
2019-02-27T09:51:12.819Z,204
2019-02-27T09:52:12.801Z,212
2019-02-27T09:53:12.529Z,216
2019-02-27T09:54:15.436Z,220
2019-02-27T09:55:12.724Z,232
2019-02-27T09:56:14.061Z,236
2019-02-27T09:57:13.202Z,244
2019-02-27T09:58:17.658Z,264
2019-02-27T09:59:13.077Z,284
2019-02-27T10:00:12.715Z,296
2019-02-27T10:01:12.591Z,308
2019-02-27T10:02:17.291Z,324
2019-02-27T10:03:12.545Z,336
2019-02-27T10:04:14.481Z,340
2019-02-27T10:05:12.528Z,348
2019-02-27T10:06:13.576Z,372
2019-02-27T10:07:14.559Z,380
2019-02-27T10:08:14.373Z,388
2019-02-27T10:09:12.416Z,428
2019-02-27T10:10:15.024Z,492
2019-02-27T10:11:12.368Z,528
2019-02-27T10:12:13.205Z,536
2019-02-27T10:13:12.386Z,548
2019-02-27T10:14:14.096Z,564
2019-02-27T10:15:12.605Z,580
2019-02-27T10:16:13.195Z,612
2019-02-27T10:17:15.954Z,648
2019-02-27T10:18:12.257Z,648
2019-02-27T10:19:12.211Z,628
2019-02-27T10:20:12.156Z,600
2019-02-27T10:21:16.518Z,588
2019-02-27T10:22:12.116Z,604
2019-02-27T10:23:12.123Z,608
2019-02-27T10:24:12.580Z,592
2019-02-27T10:25:13.391Z,600
2019-02-27T10:26:12.172Z,656
2019-02-27T10:27:12.093Z,708
2019-02-27T10:28:13.134Z,740
2019-02-27T10:29:15.654Z,764
2019-02-27T10:30:19.215Z,772
2019-02-27T10:31:12.687Z,772
2019-02-27T10:32:12.056Z,776
2019-02-27T10:33:14.071Z,780
2019-02-27T10:34:14.490Z,776
2019-02-27T10:35:11.896Z,776
2019-02-27T10:36:13.134Z,788
2019-02-27T10:37:18.153Z,788
2019-02-27T10:38:11.744Z,772
2019-02-27T10:39:11.765Z,764
2019-02-27T10:40:15.949Z,776
2019-02-27T10:41:12.524Z,784
2019-02-27T10:42:11.694Z,800
2019-02-27T10:43:12.125Z,812
2019-02-27T10:44:11.668Z,812
2019-02-27T10:45:14.770Z,804
2019-02-27T10:46:11.586Z,800
2019-02-27T10:47:11.602Z,804
2019-02-27T10:48:12.528Z,804
2019-02-27T10:49:11.509Z,808
2019-02-27T10:50:12.559Z,804
2019-02-27T10:51:14.337Z,804
2019-02-27T10:52:11.771Z,804
2019-02-27T10:53:11.719Z,804
2019-02-27T10:54:12.803Z,792
2019-02-27T10:55:16.406Z,776
2019-02-27T10:56:11.381Z,764
2019-02-27T10:57:13.068Z,760
2019-02-27T10:58:15.400Z,748
2019-02-27T10:59:11.467Z,740
2019-02-27T11:00:11.270Z,728
2019-02-27T11:01:11.250Z,728
2019-02-27T11:02:14.590Z,728
2019-02-27T11:03:11.210Z,720
2019-02-27T11:04:11.240Z,712
2019-02-27T11:05:11.200Z,724
2019-02-27T11:06:11.154Z,748
2019-02-27T11:07:13.173Z,764
2019-02-27T11:08:11.117Z,744
2019-02-27T11:09:12.297Z,760
2019-02-27T11:10:11.045Z,760
2019-02-27T11:11:18.058Z,716
2019-02-27T11:12:10.999Z,660
2019-02-27T11:13:13.929Z,616
2019-02-27T11:14:10.961Z,580
2019-02-27T11:15:13.119Z,548
2019-02-27T11:16:11.153Z,516
2019-02-27T11:17:10.690Z,480
2019-02-27T11:18:12.736Z,440
2019-02-27T11:19:10.871Z,408
2019-02-27T11:20:10.856Z,388
2019-02-27T11:21:10.855Z,376
2019-02-27T11:22:10.849Z,364
2019-02-27T11:23:13.838Z,360
2019-02-27T11:24:10.736Z,356
2019-02-27T11:25:10.703Z,364
2019-02-27T11:26:10.717Z,372
2019-02-27T11:27:13.990Z,384
2019-02-27T11:28:10.663Z,388
2019-02-27T11:29:10.633Z,384
2019-02-27T11:30:10.639Z,376
2019-02-27T11:31:15.591Z,372
2019-02-27T11:32:10.576Z,352
2019-02-27T11:33:10.306Z,320
2019-02-27T11:34:16.133Z,296
2019-02-27T11:35:10.524Z,272
2019-02-27T11:36:13.362Z,252
2019-02-27T11:37:16.444Z,244
2019-02-27T11:38:10.446Z,244
2019-02-27T11:39:11.889Z,244
2019-02-27T11:40:14.589Z,240
2019-02-27T11:41:14.853Z,240
2019-02-27T11:42:10.364Z,240
2019-02-27T11:43:13.771Z,236
2019-02-27T11:44:13.837Z,228
2019-02-27T11:45:10.297Z,224
2019-02-27T11:46:10.245Z,220
2019-02-27T11:47:13.693Z,212
2019-02-27T11:48:10.330Z,208
2019-02-27T11:49:10.355Z,204
2019-02-27T11:50:10.175Z,200
2019-02-27T11:51:10.160Z,200
2019-02-27T11:52:10.119Z,200
2019-02-27T11:53:10.203Z,200
2019-02-27T11:54:14.540Z,200
2019-02-27T11:55:10.067Z,200
2019-02-27T11:56:10.039Z,200
2019-02-27T11:57:09.999Z,200
2019-02-27T11:58:12.612Z,200
2019-02-27T11:59:14.942Z,200
2019-02-27T12:00:09.817Z,200
2019-02-27T12:01:09.941Z,204
2019-02-27T12:02:09.932Z,200
2019-02-27T12:03:13.282Z,200
2019-02-27T12:04:10.107Z,200
2019-02-27T12:05:09.912Z,200
2019-02-27T12:06:14.473Z,204
2019-02-27T12:07:09.802Z,204
2019-02-27T12:08:11.356Z,200
2019-02-27T12:09:09.760Z,204
2019-02-27T12:10:11.986Z,204
2019-02-27T12:11:14.669Z,208
2019-02-27T12:12:10.451Z,208
2019-02-27T12:13:09.693Z,208
2019-02-27T12:14:13.560Z,212
2019-02-27T12:15:12.141Z,212
2019-02-27T12:16:10.681Z,212
2019-02-27T12:17:09.588Z,212
2019-02-27T12:18:09.614Z,212
2019-02-27T12:19:13.210Z,216
2019-02-27T12:20:09.543Z,216
2019-02-27T12:21:09.841Z,220
2019-02-27T12:22:09.657Z,220
2019-02-27T12:23:14.441Z,224
2019-02-27T12:24:10.191Z,224
2019-02-27T12:25:09.405Z,224
2019-02-27T12:26:10.199Z,228
2019-02-27T12:27:10.353Z,224
2019-02-27T12:28:09.337Z,228
2019-02-27T12:29:09.456Z,228
2019-02-27T12:30:10.949Z,228
2019-02-27T12:31:14.346Z,236
2019-02-27T12:32:10.974Z,236
2019-02-27T12:33:08.988Z,236
2019-02-27T12:34:10.606Z,232
2019-02-27T12:35:15.290Z,232
2019-02-27T12:36:09.306Z,232
2019-02-27T12:37:27.932Z,232
2019-02-27T12:38:16.203Z,232
2019-02-27T12:39:09.138Z,232
2019-02-27T12:40:09.080Z,232
2019-02-27T12:41:09.053Z,232
2019-02-27T12:42:13.815Z,232
2019-02-27T12:43:08.773Z,232
2019-02-27T12:44:08.992Z,236
2019-02-27T12:45:09.014Z,236
2019-02-27T12:46:09.731Z,232
2019-02-27T12:47:10.414Z,232
2019-02-27T12:48:08.933Z,232
2019-02-27T12:49:08.888Z,232
2019-02-27T12:50:08.888Z,232
2019-02-27T12:51:11.424Z,232
2019-02-27T12:52:13.639Z,236
2019-02-27T12:53:08.823Z,236
2019-02-27T12:54:08.775Z,232
2019-02-27T12:55:09.649Z,236
2019-02-27T12:56:10.369Z,236
2019-02-27T12:57:08.715Z,240
2019-02-27T12:58:08.674Z,240
2019-02-27T12:59:08.740Z,236
2019-02-27T13:00:12.791Z,236
2019-02-27T13:01:08.680Z,236
2019-02-27T13:02:15.806Z,240
2019-02-27T13:03:13.242Z,240
2019-02-27T13:04:08.595Z,248
2019-02-27T13:05:08.348Z,264
2019-02-27T13:06:08.782Z,288
2019-02-27T13:07:12.864Z,312
2019-02-27T13:08:08.465Z,332
2019-02-27T13:09:08.467Z,352
2019-02-27T13:10:08.457Z,372
2019-02-27T13:11:12.440Z,388
2019-02-27T13:12:08.702Z,388
2019-02-27T13:13:08.360Z,380
2019-02-27T13:14:08.436Z,372
2019-02-27T13:15:11.442Z,376
2019-02-27T13:16:08.389Z,380
2019-02-27T13:17:08.950Z,396
2019-02-27T13:18:08.276Z,404
2019-02-27T13:19:11.145Z,400
2019-02-27T13:20:13.848Z,400
2019-02-27T13:21:08.289Z,400
2019-02-27T13:22:08.165Z,400
2019-02-27T13:23:11.259Z,404
2019-02-27T13:24:08.128Z,404
2019-02-27T13:25:08.277Z,400
2019-02-27T13:26:08.240Z,400
2019-02-27T13:27:11.456Z,380
2019-02-27T13:28:08.294Z,352
2019-02-27T13:29:08.096Z,332
2019-02-27T13:30:15.810Z,344
2019-02-27T13:31:08.027Z,360
2019-02-27T13:32:07.953Z,368
2019-02-27T13:33:09.254Z,364
2019-02-27T13:34:07.892Z,356
2019-02-27T13:35:07.827Z,348
2019-02-27T13:36:07.983Z,348
2019-02-27T13:37:11.619Z,336
2019-02-27T13:38:07.821Z,320
2019-02-27T13:39:07.816Z,308
2019-02-27T13:40:10.216Z,304
2019-02-27T13:41:15.482Z,296
2019-02-27T13:42:07.775Z,288
2019-02-27T13:43:08.609Z,280
2019-02-27T13:44:10.352Z,280
2019-02-27T13:45:12.517Z,288
2019-02-27T13:46:07.763Z,300
2019-02-27T13:47:07.617Z,304
2019-02-27T13:48:11.980Z,300
2019-02-27T13:49:07.652Z,296
2019-02-27T13:50:07.613Z,284
2019-02-27T13:51:09.776Z,284
2019-02-27T13:52:07.545Z,280
2019-02-27T13:53:07.263Z,280
2019-02-27T13:54:08.457Z,284
2019-02-27T13:55:10.795Z,276
2019-02-27T13:56:07.570Z,272
2019-02-27T13:57:07.420Z,272
2019-02-27T13:58:10.626Z,276
2019-02-27T13:59:13.015Z,272
2019-02-27T14:00:07.348Z,272
2019-02-27T14:01:07.406Z,272
2019-02-27T14:02:11.479Z,268
2019-02-27T14:03:11.999Z,272
2019-02-27T14:04:08.855Z,268
2019-02-27T14:05:07.859Z,272
2019-02-27T14:06:11.417Z,272
2019-02-27T14:07:07.187Z,272
2019-02-27T14:08:08.629Z,272
2019-02-27T14:09:11.615Z,272
2019-02-27T14:10:07.527Z,276
2019-02-27T14:11:07.142Z,276
2019-02-27T14:12:07.068Z,276
2019-02-27T14:13:11.365Z,276
2019-02-27T14:14:07.715Z,272
2019-02-27T14:15:07.011Z,272